Flight Track Log - Related Links

Times and Time Zones

All times are in EDT time to prevent confusion due to time zone crossing. See the SWA1435 flight status page for this flight to view local times or setup timezone preferences in your user account.

Time Position Orientation Groundspeed Altitude Reporting Facility
EDT Latitude Longitude Course Direction KTS MPH feet Rate Location/Type
Wed 07:08:21 AM 32.8000 -96.8000 25° Northeast 187 215 2,800  Level Dallas / Fort Worth TRACON
Wed 07:09:33 AM 32.7667 -96.7333 121° Southeast 218 251 5,700 2,355 Climbing Dallas / Fort Worth TRACON
Wed 07:11:27 AM 32.9067 -96.7083 North 308 354 10,100 2,069 Climbing Fort Worth Center
Wed 07:12:27 AM 32.9922 -96.7272 350° North 333 383 11,700 2,250 Climbing Fort Worth Center
Wed 07:13:00 AM 33.3354 -96.5840 25° Northeast  Level FlightAware Approximate
Wed 07:13:27 AM 33.0986 -96.6894 17° North 350 403 14,600  Level Fort Worth Center
Wed 07:14:27 AM 33.1775 -96.6267 34° Northeast 363 418 17,000 2,350 Climbing Fort Worth Center
Wed 07:15:27 AM 33.2689 -96.5589 32° Northeast 384 442 19,300 2,400 Climbing Fort Worth Center
Wed 07:16:27 AM 33.3747 -96.4806 32° Northeast 394 453 21,800 2,100 Climbing Fort Worth Center
Wed 07:17:27 AM 33.4681 -96.4100 32° Northeast 394 453 23,500 1,600 Climbing Fort Worth Center
Wed 07:18:27 AM 33.5594 -96.3417 32° Northeast 414 476 25,000 1,550 Climbing Fort Worth Center
Wed 07:19:27 AM 33.6611 -96.2656 32° Northeast 421 484 26,600 1,550 Climbing Fort Worth Center
Wed 07:20:27 AM 33.7667 -96.1867 32° Northeast 434 499 28,100 1,350 Climbing Fort Worth Center
Wed 07:21:27 AM 33.8744 -96.1050 32° Northeast 452 520 29,300 1,250 Climbing Fort Worth Center
Wed 07:22:27 AM 33.9842 -96.0233 32° Northeast 458 527 30,600 1,350 Climbing Fort Worth Center
Wed 07:23:27 AM 34.1019 -95.9311 33° Northeast 458 527 32,000 1,500 Climbing Fort Worth Center
Wed 07:24:27 AM 34.2136 -95.8464 32° Northeast 453 521 33,600 1,350 Climbing Fort Worth Center
Wed 07:25:27 AM 34.3233 -95.7664 31° Northeast 453 521 34,700 1,250 Climbing Fort Worth Center
Wed 07:26:27 AM 34.4328 -95.6786 33° Northeast 453 521 36,100 1,150 Climbing Fort Worth Center
Wed 07:27:27 AM 34.5381 -95.5983 32° Northeast 453 521 37,000 297 Climbing Fort Worth Center
Wed 07:29:29 AM 34.7472 -95.4397 32° Northeast 448 516 37,000  Level Memphis Center
Wed 07:30:29 AM 34.8550 -95.3550 33° Northeast 448 516 37,000  Level Memphis Center
Wed 07:31:29 AM 34.9628 -95.2728 32° Northeast 453 521 37,000  Level Memphis Center
Wed 07:32:29 AM 35.0703 -95.1853 34° Northeast 453 521 37,000  Level Memphis Center
Wed 07:33:29 AM 35.1800 -95.1000 32° Northeast 458 527 37,000  Level Memphis Center
Wed 07:34:29 AM 35.2897 -95.0147 32° Northeast 463 533 37,000  Level Memphis Center
Wed 07:35:29 AM 35.3992 -94.9292 32° Northeast 463 533 37,000  Level Memphis Center
Wed 07:36:29 AM 35.5086 -94.8433 33° Northeast 463 533 37,000  Level Memphis Center
Wed 07:37:29 AM 35.6161 -94.7547 34° Northeast 468 539 37,000  Level Memphis Center
Wed 07:38:29 AM 35.7256 -94.6683 33° Northeast 468 539 37,000  Level Memphis Center
Wed 07:39:29 AM 35.8325 -94.5842 33° Northeast 468 539 37,000  Level Memphis Center
Wed 07:40:29 AM 35.9419 -94.4975 33° Northeast 468 539 37,000  Level Memphis Center
Wed 07:41:29 AM 36.0489 -94.4106 33° Northeast 468 539 37,000  Level Memphis Center
Wed 07:42:29 AM 36.1539 -94.3233 34° Northeast 468 539 37,000  Level Memphis Center
Wed 07:44:41 AM 36.3908 -94.1319 33° Northeast 458 527 37,000  Level Kansas City Center
Wed 07:45:43 AM 36.4969 -94.0458 33° Northeast 456 525 37,000  Level Kansas City Center
Wed 07:46:43 AM 36.6028 -93.9597 33° Northeast 456 525 37,000  Level Kansas City Center
Wed 07:47:43 AM 36.7092 -93.8722 33° Northeast 456 525 37,000  Level Kansas City Center
Wed 07:48:44 AM 36.8147 -93.7853 33° Northeast 455 524 37,000  Level Kansas City Center
Wed 07:49:46 AM 36.9322 -93.6883 33° Northeast 451 519 37,000  Level Kansas City Center
Wed 07:50:47 AM 37.0367 -93.6011 34° Northeast 449 517 37,000  Level Kansas City Center
Wed 07:51:48 AM 37.1422 -93.5128 34° Northeast 452 520 37,000  Level Kansas City Center
Wed 07:52:49 AM 37.2469 -93.4267 33° Northeast 450 518 37,000  Level Kansas City Center
Wed 07:53:49 AM 37.3517 -93.3392 34° Northeast 449 517 37,000  Level Kansas City Center
Wed 07:54:50 AM 37.4461 -93.2328 42° Northeast 454 522 37,000  Level Kansas City Center
Wed 07:55:50 AM 37.5378 -93.1236 43° Northeast 452 520 37,000  Level Kansas City Center
Wed 07:56:51 AM 37.6311 -93.0164 42° Northeast 451 519 37,000  Level Kansas City Center
Wed 07:57:54 AM 37.7236 -92.9064 43° Northeast 455 524 37,000  Level Kansas City Center
Wed 07:58:55 AM 37.8169 -92.7969 43° Northeast 454 522 37,000  Level Kansas City Center
Wed 07:59:56 AM 37.9158 -92.6722 45° Northeast 458 527 37,000 -446 Level Kansas City Center
Wed 08:00:56 AM 37.9881 -92.5381 56° Northeast 462 532 36,100 -1,869 Descending Kansas City Center
Wed 08:01:58 AM 38.0625 -92.4042 55° Northeast 468 539 33,200 -2,902 Descending Kansas City Center
Wed 08:02:58 AM 38.1378 -92.2633 56° Northeast 480 552 30,200 -2,777 Descending Kansas City Center
Wed 08:03:59 AM 38.2108 -92.1244 56° Northeast 477 549 27,600 -2,410 Descending Kansas City Center
Wed 08:05:00 AM 38.2828 -91.9889 56° Northeast 469 540 25,300 -2,213 Descending Kansas City Center
Wed 08:06:01 AM 38.3514 -91.8589 56° Northeast 455 524 23,100 -2,182 Descending Kansas City Center
Wed 08:07:01 AM 38.4175 -91.7336 56° Northeast 439 505 20,900 -2,081 Descending Kansas City Center
Wed 08:08:05 AM 38.4814 -91.6117 56° Northeast 421 484 18,800 -2,016 Descending Kansas City Center
Wed 08:09:06 AM 38.5450 -91.4886 57° Northeast 415 478 16,700 -2,200 Descending Kansas City Center
Wed 08:10:05 AM 38.6072 -91.3692 56° Northeast 406 467 14,400 -2,430 Descending Kansas City Center
Wed 08:10:25 AM 38.6322 -91.2661 73° East 395 455 13,500 -2,550 Descending FAA TRACON SMA TRACON (SMA)
Wed 08:10:45 AM 38.6550 -91.2217 57° Northeast 389 448 12,700 -2,250 Descending FAA TRACON SMA TRACON (SMA)
Wed 08:11:05 AM 38.6728 -91.1872 57° Northeast 385 443 12,000 -1,950 Descending FAA TRACON SMA TRACON (SMA)
Wed 08:11:25 AM 38.6878 -91.1503 63° Northeast 381 438 11,400 -2,100 Descending FAA TRACON SMA TRACON (SMA)
Wed 08:11:45 AM 38.6931 -91.1011 82° East 368 423 10,600 -1,800 Descending FAA TRACON SMA TRACON (SMA)
Wed 08:12:05 AM 38.6939 -91.0622 88° East 358 412 10,200 -900 Descending FAA TRACON SMA TRACON (SMA)
Wed 08:12:25 AM 38.7022 -91.0258 74° East 349 402 10,000 -900 Descending FAA TRACON SMA TRACON (SMA)
Wed 08:12:45 AM 38.7194 -90.9864 61° Northeast 335 386 9,600 -1,350 Descending FAA TRACON SMA TRACON (SMA)
Wed 08:13:05 AM 38.7331 -90.9553 61° Northeast 327 376 9,100 -1,500 Descending FAA TRACON SMA TRACON (SMA)
Wed 08:13:25 AM 38.7469 -90.9247 60° Northeast 325 374 8,600 -1,200 Descending FAA TRACON SMA TRACON (SMA)
Wed 08:13:45 AM 38.7636 -90.8864 61° Northeast 323 372 8,300 -900 Descending FAA TRACON SMA TRACON (SMA)
Wed 08:14:05 AM 38.7764 -90.8578 60° Northeast 310 357 8,000 -750 Descending FAA TRACON SMA TRACON (SMA)
Wed 08:14:25 AM 38.7894 -90.8303 59° Northeast 299 344 7,800 -750 Descending FAA TRACON SMA TRACON (SMA)
Wed 08:14:45 AM 38.8036 -90.7972 61° Northeast 280 322 7,500 -600 Descending FAA TRACON SMA TRACON (SMA)
Wed 08:15:05 AM 38.8150 -90.7725 59° Northeast 268 308 7,400 -750 Descending FAA TRACON SMA TRACON (SMA)
Wed 08:15:25 AM 38.8261 -90.7481 60° Northeast 261 300 7,000 -1,200 Descending FAA TRACON SMA TRACON (SMA)
Wed 08:15:45 AM 38.8403 -90.7175 59° Northeast 257 296 6,600 -1,200 Descending FAA TRACON SMA TRACON (SMA)
Wed 08:16:05 AM 38.8517 -90.6931 59° Northeast 259 298 6,200 -900 Descending FAA TRACON SMA TRACON (SMA)
Wed 08:16:25 AM 38.8625 -90.6689 60° Northeast 257 296 6,000 -450 Descending FAA TRACON SMA TRACON (SMA)
Wed 08:16:45 AM 38.8744 -90.6411 61° Northeast 242 278 5,900 -450 Descending FAA TRACON SMA TRACON (SMA)
Wed 08:17:05 AM 38.8769 -90.6181 82° East 228 262 5,700 -1,050 Descending FAA TRACON SMA TRACON (SMA)
Wed 08:17:25 AM 38.8756 -90.5953 94° East 210 242 5,200 -1,650 Descending FAA TRACON SMA TRACON (SMA)
Wed 08:17:45 AM 38.8689 -90.5689 108° East 208 239 4,600 -1,650 Descending FAA TRACON SMA TRACON (SMA)
Wed 08:18:05 AM 38.8597 -90.5492 121° Southeast 208 239 4,100 -1,350 Descending FAA TRACON SMA TRACON (SMA)
Wed 08:18:25 AM 38.8503 -90.5292 121° Southeast 210 242 3,700 -1,050 Descending FAA TRACON SMA TRACON (SMA)
Wed 08:18:45 AM 38.8389 -90.5053 121° Southeast 207 238 3,400 -750 Descending FAA TRACON SMA TRACON (SMA)
Wed 08:19:05 AM 38.8297 -90.4878 124° Southeast 196 226 3,200 -750 Descending FAA TRACON SMA TRACON (SMA)
Wed 08:19:25 AM 38.8211 -90.4703 122° Southeast 189 217 2,900 -1,050 Descending FAA TRACON SMA TRACON (SMA)
Wed 08:19:45 AM 38.8106 -90.4489 122° Southeast 186 214 2,500 -900 Descending FAA TRACON SMA TRACON (SMA)
Wed 08:20:05 AM 38.8025 -90.4325 122° Southeast 180 207 2,300 -300 Descending FAA TRACON SMA TRACON (SMA)
Wed 08:20:25 AM 38.7944 -90.4158 122° Southeast 175 201 2,300 -600 Level FAA TRACON SMA TRACON (SMA)
Wed 08:20:45 AM 38.7850 -90.3969 123° Southeast 167 192 1,900 -900 Descending FAA TRACON SMA TRACON (SMA)
Wed 08:21:05 AM 38.7781 -90.3831 123° Southeast 153 176 1,700 -600 Descending FAA TRACON SMA TRACON (SMA)
Wed 08:21:25 AM 38.7722 -90.3714 123° Southeast 133 153 1,500 -750 Descending FAA TRACON SMA TRACON (SMA)
Wed 08:21:45 AM 38.7653 -90.3572 122° Southeast 121 139 1,200 -750 Descending FAA TRACON SMA TRACON (SMA)
Wed 08:22:05 AM 38.7594 -90.3458 123° Southeast 122 140 1,000 -600 Descending FAA TRACON SMA TRACON (SMA)
Wed 08:22:25 AM 38.7539 -90.3342 121° Southeast 127 146 800 -600 Descending FAA TRACON SMA TRACON (SMA)
Wed 08:22:45 AM 38.7494 -90.3247 121° Southeast 131 151 600 -600 Descending FAA TRACON SMA TRACON (SMA)

Login

Don't have an account? Register now (free) for customized features, flight alerts, and more!